Time;durP1;ratioP1;P1;durP2;ratioP2;P2;SDS_P1;SDS_P2;PMS_P1;PMS_P2;Temp;Humidity;BMP_temperature;BMP_pressure;BME280_temperature;BME280_humidity;BME280_pressure;Samples;Min_cycle;Max_cycle;Signal;HPM_P1;HPM_P2
2023/12/14 00:01:15;;;;;;;17.05;10.02;;;;;;;8.42;92.52;100776.78;5067559;28;20024;-69
2023/12/14 00:03:43;;;;;;;14.23;8.82;;;;;;;8.37;92.40;100782.19;5067789;28;20377;-69
2023/12/14 00:06:09;;;;;;;15.10;9.10;;;;;;;8.38;92.83;100786.53;5066524;28;20373;-69
2023/12/14 00:08:35;;;;;;;14.23;8.55;;;;;;;8.38;92.57;100793.56;5061974;28;20034;-69
2023/12/14 00:11:18;;;;;;;14.43;8.55;;;;;;;8.35;92.24;100791.88;5071034;28;20043;-69
2023/12/14 00:13:43;;;;;;;12.55;8.35;;;;;;;8.28;91.86;100800.03;5070043;28;20697;-69
2023/12/14 00:16:09;;;;;;;13.30;8.45;;;;;;;8.27;92.27;100804.44;5070977;28;20031;-69
2023/12/14 00:18:35;;;;;;;14.60;8.25;;;;;;;8.22;92.43;100805.50;5068078;28;20109;-69
2023/12/14 00:21:00;;;;;;;15.70;8.50;;;;;;;8.20;92.63;100810.78;5067527;28;20054;-69
2023/12/14 00:23:26;;;;;;;16.63;9.35;;;;;;;8.19;92.30;100814.34;5063241;28;20433;-69
2023/12/14 00:25:52;;;;;;;15.80;8.85;;;;;;;8.19;92.23;100816.97;5056384;28;20462;-69
2023/12/14 00:28:17;;;;;;;16.63;9.27;;;;;;;8.17;92.42;100830.19;5057562;28;20476;-70
2023/12/14 00:30:42;;;;;;;18.42;10.70;;;;;;;8.15;92.58;100834.63;5060211;28;20029;-69
2023/12/14 00:33:08;;;;;;;17.63;10.77;;;;;;;8.17;93.10;100848.63;5056411;28;20056;-69
2023/12/14 00:35:33;;;;;;;16.85;10.10;;;;;;;8.16;92.54;100854.81;5065451;28;20104;-70
2023/12/14 00:37:59;;;;;;;16.45;9.82;;;;;;;8.16;92.57;100864.47;5059635;28;20464;-69
2023/12/14 00:40:25;;;;;;;18.95;10.55;;;;;;;8.14;92.17;100866.28;5062611;28;20028;-69
2023/12/14 00:42:50;;;;;;;19.42;10.63;;;;;;;8.12;92.22;100876.88;5058465;28;20028;-69
2023/12/14 00:45:15;;;;;;;16.33;9.73;;;;;;;8.12;92.72;100879.50;5062114;28;20024;-69
2023/12/14 00:47:41;;;;;;;19.83;11.60;;;;;;;8.12;92.79;100884.75;5063351;28;20218;-69
2023/12/14 00:50:06;;;;;;;23.75;11.90;;;;;;;8.09;93.08;100889.25;5055562;28;20070;-69
2023/12/14 00:52:32;;;;;;;21.35;11.43;;;;;;;8.03;92.93;100892.94;5066151;28;20404;-69
2023/12/14 00:54:58;;;;;;;22.90;12.27;;;;;;;8.01;92.93;100896.50;5063004;28;20031;-69
2023/12/14 00:57:23;;;;;;;24.33;12.10;;;;;;;7.96;93.56;100894.00;5067758;28;20139;-68
2023/12/14 00:59:48;;;;;;;24.55;13.45;;;;;;;7.91;93.16;100907.28;5062827;28;20078;-68
2023/12/14 01:02:14;;;;;;;27.40;13.07;;;;;;;7.87;93.21;100913.53;5067828;28;20047;-69
2023/12/14 01:04:39;;;;;;;26.73;12.93;;;;;;;7.86;93.37;100916.22;5059263;28;20240;-69
2023/12/14 01:07:04;;;;;;;24.77;12.52;;;;;;;7.86;93.65;100916.22;5065699;28;20082;-69
2023/12/14 01:09:30;;;;;;;23.92;12.23;;;;;;;7.85;93.61;100919.78;5064533;28;20012;-69
2023/12/14 01:11:55;;;;;;;24.48;12.93;;;;;;;7.79;92.89;100922.59;5061998;28;20150;-69
2023/12/14 01:14:21;;;;;;;25.63;12.82;;;;;;;7.75;93.50;100915.69;5062229;28;20074;-69
2023/12/14 01:16:46;;;;;;;26.90;13.00;;;;;;;7.74;93.16;100921.81;5059784;28;20099;-69
2023/12/14 01:19:12;;;;;;;21.73;11.38;;;;;;;7.73;93.47;100918.31;5063116;28;20104;-69
2023/12/14 01:21:37;;;;;;;24.23;11.63;;;;;;;7.68;93.59;100931.59;5060172;28;20025;-68
2023/12/14 01:24:03;;;;;;;22.63;11.43;;;;;;;7.65;93.02;100933.47;5063401;28;21161;-69
2023/12/14 01:26:28;;;;;;;24.83;12.05;;;;;;;7.59;93.18;100939.75;5060994;28;20032;-69
2023/12/14 01:28:54;;;;;;;19.95;11.00;;;;;;;7.57;93.06;100945.97;5061180;28;20024;-68
2023/12/14 01:31:23;;;;;;;19.67;10.15;;;;;;;7.54;92.74;100953.94;5058522;28;20059;-68
2023/12/14 01:33:49;;;;;;;19.38;10.20;;;;;;;7.53;93.10;100966.22;5063559;28;20455;-69
2023/12/14 01:36:21;;;;;;;20.33;10.48;;;;;;;7.50;93.14;100970.69;5052692;28;20044;-69
2023/12/14 01:38:47;;;;;;;17.95;9.68;;;;;;;7.48;92.85;100970.75;5059230;28;20082;-68
2023/12/14 01:41:13;;;;;;;22.50;10.13;;;;;;;7.45;92.81;100977.84;5062421;28;20042;-69
2023/12/14 01:43:39;;;;;;;19.38;10.15;;;;;;;7.43;92.67;100980.50;5062820;28;20028;-68
2023/12/14 01:46:04;;;;;;;18.23;10.05;;;;;;;7.41;92.78;100977.03;5057689;28;20326;-69
2023/12/14 01:48:30;;;;;;;22.55;11.80;;;;;;;7.40;92.17;100991.09;5060713;28;20021;-68
2023/12/14 01:50:55;;;;;;;16.95;9.82;;;;;;;7.40;92.35;100985.84;5054326;28;20121;-69
2023/12/14 01:53:21;;;;;;;18.70;9.85;;;;;;;7.41;92.31;100998.97;5058514;28;20040;-68
2023/12/14 01:55:46;;;;;;;20.65;10.13;;;;;;;7.41;91.90;101005.97;5065088;28;20502;-68
2023/12/14 01:58:12;;;;;;;17.40;10.30;;;;;;;7.40;91.92;101017.41;5062239;28;20044;-69
2023/12/14 02:00:50;;;;;;;16.25;9.77;;;;;;;7.39;91.89;101016.53;5057656;28;20036;-68
2023/12/14 02:03:16;;;;;;;16.23;8.88;;;;;;;7.39;91.57;101019.16;5055469;28;20462;-69
2023/12/14 02:05:42;;;;;;;19.10;9.88;;;;;;;7.34;91.32;101017.56;5058025;28;20055;-69
2023/12/14 02:08:07;;;;;;;15.60;8.95;;;;;;;7.36;91.30;101026.25;5062327;28;20090;-68
2023/12/14 02:10:33;;;;;;;18.85;10.15;;;;;;;7.33;91.11;101032.47;5058232;28;20032;-69
2023/12/14 02:13:01;;;;;;;18.30;9.35;;;;;;;7.29;91.29;101029.97;5054659;28;20054;-69
2023/12/14 02:15:26;;;;;;;16.83;9.30;;;;;;;7.29;91.56;101033.44;5064232;28;20032;-69
2023/12/14 02:17:52;;;;;;;18.88;10.32;;;;;;;7.32;91.81;101037.75;5055050;28;20033;-69
2023/12/14 02:20:17;;;;;;;23.45;10.45;;;;;;;7.30;91.34;101043.06;5059546;28;20083;-69
2023/12/14 02:22:53;;;;;;;17.70;10.20;;;;;;;7.32;91.49;101053.53;5059884;28;20029;-69
2023/12/14 02:25:19;;;;;;;20.20;9.55;;;;;;;7.33;91.67;101060.53;5060020;28;20033;-68
2023/12/14 02:27:45;;;;;;;18.15;9.88;;;;;;;7.30;91.34;101065.88;5055785;28;20040;-68
2023/12/14 02:30:11;;;;;;;18.17;10.30;;;;;;;7.29;90.98;101077.28;5053410;28;20369;-69
2023/12/14 02:32:38;;;;;;;19.58;10.60;;;;;;;7.26;91.11;101074.72;5054943;28;20063;-68
2023/12/14 02:35:04;;;;;;;15.02;9.23;;;;;;;7.26;91.10;101070.31;5059114;28;20028;-68
2023/12/14 02:37:29;;;;;;;14.90;9.25;;;;;;;7.27;91.03;101068.56;5053488;28;20024;-68
2023/12/14 02:39:55;;;;;;;19.05;9.82;;;;;;;7.27;90.39;101074.69;5061015;28;20021;-68
2023/12/14 02:42:20;;;;;;;19.80;10.05;;;;;;;7.24;90.82;101081.78;5060160;28;20016;-68
2023/12/14 02:44:46;;;;;;;17.85;8.77;;;;;;;7.21;90.64;101084.47;5063794;28;20434;-68
2023/12/14 02:47:11;;;;;;;17.63;8.88;;;;;;;7.18;90.50;101080.19;5067989;28;20039;-69
2023/12/14 02:49:37;;;;;;;17.50;9.60;;;;;;;7.19;90.32;101102.06;5066721;28;20025;-69
2023/12/14 02:52:02;;;;;;;17.40;9.23;;;;;;;7.21;90.43;101095.00;5065785;28;20051;-68
2023/12/14 02:54:27;;;;;;;21.55;10.55;;;;;;;7.21;90.44;101102.88;5069379;28;20352;-68
2023/12/14 02:56:53;;;;;;;18.77;9.68;;;;;;;7.18;89.90;101105.56;5063995;28;20061;-68
2023/12/14 02:59:18;;;;;;;17.83;9.98;;;;;;;7.17;90.26;101115.22;5067011;28;20313;-68
2023/12/14 03:01:43;;;;;;;18.55;9.73;;;;;;;7.15;90.05;101119.66;5059801;28;20750;-68
2023/12/14 03:04:09;;;;;;;19.35;10.15;;;;;;;7.12;90.55;101119.72;5071402;28;20546;-68
2023/12/14 03:06:34;;;;;;;21.08;10.07;;;;;;;7.13;89.91;101126.72;5067818;28;20039;-68
2023/12/14 03:09:00;;;;;;;17.67;9.85;;;;;;;7.13;89.46;101134.59;5067119;28;20020;-68
2023/12/14 03:11:25;;;;;;;19.50;9.45;;;;;;;7.10;89.88;101132.91;5063305;28;20495;-68
2023/12/14 03:13:51;;;;;;;16.38;8.90;;;;;;;7.11;90.54;101137.25;5068289;28;20024;-68
2023/12/14 03:16:16;;;;;;;17.83;9.77;;;;;;;7.11;89.77;101146.91;5067171;28;20479;-69
2023/12/14 03:18:42;;;;;;;18.55;10.02;;;;;;;7.08;89.75;101133.81;5059232;28;20103;-69
2023/12/14 03:21:09;;;;;;;18.10;9.93;;;;;;;7.03;89.63;101141.81;5060701;28;20028;-69
2023/12/14 03:23:35;;;;;;;19.25;9.20;;;;;;;7.05;89.40;101140.03;5064618;28;20420;-68
2023/12/14 03:26:01;;;;;;;17.25;10.05;;;;;;;7.06;89.42;101146.16;5063435;28;20135;-68
2023/12/14 03:28:26;;;;;;;18.27;10.35;;;;;;;7.03;89.21;101149.69;5068129;28;20400;-68
2023/12/14 03:30:52;;;;;;;17.85;10.43;;;;;;;7.03;89.03;101149.69;5063998;28;20035;-68
2023/12/14 03:33:17;;;;;;;17.60;9.27;;;;;;;7.03;89.52;101149.69;5067500;28;20138;-68
2023/12/14 03:35:43;;;;;;;17.50;9.23;;;;;;;7.06;89.48;101149.66;5068954;28;20024;-68
2023/12/14 03:38:09;;;;;;;20.48;10.75;;;;;;;7.08;88.97;101150.47;5068799;28;20060;-68
2023/12/14 03:40:35;;;;;;;21.23;10.65;;;;;;;7.09;88.97;101154.84;5058666;28;20427;-68
2023/12/14 03:43:01;;;;;;;18.35;9.90;;;;;;;7.08;89.00;101153.09;5060525;28;20087;-68
2023/12/14 03:45:27;;;;;;;18.75;10.27;;;;;;;7.07;89.22;101156.63;5064248;28;20127;-68
2023/12/14 03:47:55;;;;;;;20.30;10.60;;;;;;;7.08;89.50;101168.00;5059567;28;20103;-68
2023/12/14 03:50:20;;;;;;;19.75;10.73;;;;;;;7.10;89.75;101161.84;5056578;28;20032;-68
2023/12/14 03:52:46;;;;;;;20.58;10.50;;;;;;;7.10;89.33;101164.47;5063727;28;20024;-69
2023/12/14 03:55:12;;;;;;;20.00;10.40;;;;;;;7.11;89.38;101178.47;5061905;28;20025;-68
2023/12/14 03:57:37;;;;;;;19.17;10.52;;;;;;;7.09;88.93;101178.50;5064931;28;20377;-68
2023/12/14 04:00:03;;;;;;;21.10;10.70;;;;;;;7.12;89.46;101182.81;5060549;28;20137;-69
2023/12/14 04:02:29;;;;;;;19.63;10.07;;;;;;;7.07;88.41;101180.28;5062189;28;20089;-68
2023/12/14 04:04:55;;;;;;;20.15;10.55;;;;;;;7.02;88.85;101178.66;5063867;28;20520;-69
2023/12/14 04:07:21;;;;;;;19.92;9.73;;;;;;;7.00;88.96;101181.31;5062487;28;20070;-69
2023/12/14 04:09:46;;;;;;;19.08;10.80;;;;;;;6.98;88.56;101183.09;5056644;28;20024;-69
2023/12/14 04:12:12;;;;;;;19.52;10.23;;;;;;;7.00;88.68;101183.97;5065710;28;20070;-69
2023/12/14 04:14:37;;;;;;;16.38;9.60;;;;;;;7.03;88.67;101181.25;5057555;28;20040;-69
2023/12/14 04:17:02;;;;;;;18.70;9.18;;;;;;;7.04;88.31;101185.63;5055482;28;20024;-69
2023/12/14 04:19:28;;;;;;;17.45;11.05;;;;;;;7.03;88.76;101178.63;5060936;28;20032;-69
2023/12/14 04:21:53;;;;;;;18.48;10.02;;;;;;;7.02;88.12;101173.41;5067393;28;20027;-69
2023/12/14 04:24:18;;;;;;;19.90;10.98;;;;;;;6.98;88.05;101179.59;5061008;28;20059;-69
2023/12/14 04:26:44;;;;;;;17.23;10.07;;;;;;;7.00;87.91;101193.59;5065497;28;20020;-68
2023/12/14 04:29:10;;;;;;;19.65;10.45;;;;;;;6.95;88.22;101204.22;5059788;28;20029;-69
2023/12/14 04:31:35;;;;;;;19.23;10.00;;;;;;;6.96;87.94;101208.56;5060445;28;20166;-70
2023/12/14 04:34:00;;;;;;;16.98;9.85;;;;;;;6.97;87.90;101214.69;5063009;28;20089;-69
2023/12/14 04:36:26;;;;;;;16.38;9.23;;;;;;;6.97;88.00;101218.19;5058882;28;20028;-69
2023/12/14 04:38:51;;;;;;;17.40;9.30;;;;;;;6.97;88.05;101233.09;5058789;28;20083;-69
2023/12/14 04:41:16;;;;;;;14.00;8.57;;;;;;;6.98;87.62;101234.81;5061979;28;20048;-69
2023/12/14 04:43:42;;;;;;;18.88;9.55;;;;;;;6.97;87.97;101248.84;5057526;28;20032;-68
2023/12/14 04:46:07;;;;;;;15.48;8.93;;;;;;;6.98;87.54;101246.19;5063203;28;20032;-69
2023/12/14 04:48:32;;;;;;;17.08;10.02;;;;;;;6.96;87.42;101253.25;5060866;28;20048;-68
2023/12/14 04:50:58;;;;;;;17.58;9.00;;;;;;;6.93;86.71;101263.81;5065348;28;20278;-69
2023/12/14 04:53:23;;;;;;;15.40;8.90;;;;;;;6.90;86.27;101266.47;5058528;28;20029;-69
2023/12/14 04:55:48;;;;;;;15.80;9.40;;;;;;;6.88;86.64;101269.16;5063752;28;20059;-68
2023/12/14 04:58:14;;;;;;;17.75;9.20;;;;;;;6.90;86.82;101270.00;5062570;28;20504;-69
2023/12/14 05:00:39;;;;;;;18.13;8.95;;;;;;;6.89;86.67;101278.75;5061279;28;20582;-68
2023/12/14 05:03:05;;;;;;;16.77;10.07;;;;;;;6.89;86.53;101277.91;5066189;28;20035;-68
2023/12/14 05:05:31;;;;;;;16.88;10.15;;;;;;;6.86;86.71;101283.22;5060336;28;20024;-68
2023/12/14 05:07:56;;;;;;;18.05;10.35;;;;;;;6.87;86.53;101290.22;5064516;28;20027;-68
2023/12/14 05:10:22;;;;;;;19.58;10.23;;;;;;;6.87;86.55;101298.09;5062324;28;20032;-68
2023/12/14 05:12:47;;;;;;;17.10;10.30;;;;;;;6.88;86.78;101299.81;5064833;28;20036;-68
2023/12/14 05:15:12;;;;;;;17.05;10.07;;;;;;;6.90;86.80;101306.81;5062319;28;20080;-68
2023/12/14 05:17:38;;;;;;;17.45;9.70;;;;;;;6.90;87.38;101312.06;5057910;28;20033;-68
2023/12/14 05:20:08;;;;;;;16.10;10.05;;;;;;;6.91;87.28;101323.44;5067603;28;20056;-68
2023/12/14 05:22:33;;;;;;;19.63;10.27;;;;;;;6.93;87.37;101329.53;5055193;28;20066;-68
2023/12/14 05:24:59;;;;;;;18.35;9.93;;;;;;;6.93;87.12;101332.16;5071174;28;20364;-68
2023/12/14 05:27:25;;;;;;;17.85;9.98;;;;;;;6.90;87.52;101335.72;5065000;28;20127;-68
2023/12/14 05:29:50;;;;;;;16.98;10.27;;;;;;;6.93;86.94;101345.28;5057025;28;20024;-68
2023/12/14 05:32:15;;;;;;;15.75;9.75;;;;;;;6.94;87.37;101349.66;5061599;28;20028;-68
2023/12/14 05:34:41;;;;;;;19.08;10.38;;;;;;;6.95;87.36;101348.78;5064423;28;20064;-68
2023/12/14 05:37:06;;;;;;;17.40;10.48;;;;;;;6.97;87.39;101356.63;5061553;28;20091;-68
2023/12/14 05:39:31;;;;;;;18.85;10.48;;;;;;;6.97;87.58;101362.75;5060598;28;20020;-69
2023/12/14 05:41:57;;;;;;;19.40;10.40;;;;;;;6.96;87.40;101362.78;5062041;28;20054;-69
2023/12/14 05:44:22;;;;;;;16.63;10.32;;;;;;;6.97;87.86;101370.63;5056972;28;20039;-68
2023/12/14 05:46:48;;;;;;;17.20;10.70;;;;;;;6.95;87.61;101379.44;5059221;28;20017;-68
2023/12/14 05:49:13;;;;;;;17.25;10.57;;;;;;;6.91;87.51;101381.25;5060539;28;20070;-69
2023/12/14 05:51:39;;;;;;;19.50;11.10;;;;;;;6.92;87.58;101398.75;5061145;28;20031;-68
2023/12/14 05:54:04;;;;;;;17.73;10.10;;;;;;;6.93;87.47;101400.50;5066292;28;20033;-68
2023/12/14 05:56:30;;;;;;;20.20;9.93;;;;;;;6.93;87.60;101410.13;5066378;28;20485;-68
2023/12/14 05:58:55;;;;;;;18.38;10.15;;;;;;;6.92;87.47;101416.28;5060893;28;20028;-68
2023/12/14 06:01:20;;;;;;;16.63;10.07;;;;;;;6.90;86.98;101414.56;5062298;28;20441;-68
2023/12/14 06:03:46;;;;;;;19.75;11.20;;;;;;;6.88;87.31;101420.72;5060059;28;20024;-68
2023/12/14 06:06:15;;;;;;;17.85;10.90;;;;;;;6.88;87.22;101429.47;5059245;28;20443;-69
2023/12/14 06:08:41;;;;;;;20.33;11.55;;;;;;;6.87;87.02;101422.50;5058377;28;20028;-68
2023/12/14 06:11:07;;;;;;;18.17;10.85;;;;;;;6.90;87.34;101426.81;5056912;28;20396;-69
2023/12/14 06:13:33;;;;;;;20.00;10.50;;;;;;;6.88;87.13;101424.22;5061735;28;20032;-68
2023/12/14 06:15:58;;;;;;;16.77;10.38;;;;;;;6.89;87.20;101427.72;5058370;28;20787;-68
2023/12/14 06:18:24;;;;;;;16.73;9.80;;;;;;;6.88;86.97;101433.88;5055176;28;20028;-68
2023/12/14 06:20:49;;;;;;;19.13;11.20;;;;;;;6.87;86.78;101438.25;5062947;28;20027;-68
2023/12/14 06:23:15;;;;;;;17.35;9.98;;;;;;;6.88;87.22;101439.97;5065533;28;20032;-68
2023/12/14 06:25:43;;;;;;;17.27;10.30;;;;;;;6.89;87.60;101440.84;5056500;28;20032;-68
2023/12/14 06:28:08;;;;;;;16.65;9.45;;;;;;;6.89;87.34;101449.59;5057523;28;20051;-68
2023/12/14 06:30:34;;;;;;;16.05;10.15;;;;;;;6.89;87.05;101446.97;5059834;28;20032;-68
2023/12/14 06:32:59;;;;;;;16.17;9.82;;;;;;;6.89;86.80;101456.63;5064202;28;20051;-68
2023/12/14 06:35:24;;;;;;;17.27;10.02;;;;;;;6.87;86.51;101458.41;5063958;28;20384;-68
2023/12/14 06:37:50;;;;;;;16.63;9.73;;;;;;;6.88;86.91;101462.78;5057654;28;20389;-68
2023/12/14 06:40:16;;;;;;;16.75;10.13;;;;;;;6.87;86.93;101467.16;5065909;28;20381;-68
2023/12/14 06:42:42;;;;;;;19.15;10.90;;;;;;;6.88;86.89;101471.53;5061718;28;20107;-68
2023/12/14 06:45:08;;;;;;;17.38;10.35;;;;;;;6.89;87.54;101477.66;5061259;28;20119;-68
2023/12/14 06:47:33;;;;;;;17.92;10.80;;;;;;;6.88;87.24;101481.19;5057647;28;20453;-68
2023/12/14 06:49:59;;;;;;;17.45;10.00;;;;;;;6.83;87.06;101476.00;5064568;28;20104;-68
2023/12/14 06:52:24;;;;;;;16.92;10.15;;;;;;;6.85;87.54;101481.22;5057411;28;20028;-69
2023/12/14 06:54:49;;;;;;;16.73;9.88;;;;;;;6.85;87.50;101475.94;5061994;28;20024;-68
2023/12/14 06:57:15;;;;;;;18.00;9.57;;;;;;;6.87;87.76;101484.69;5057062;28;20141;-69
2023/12/14 06:59:40;;;;;;;16.50;10.05;;;;;;;6.87;87.84;101489.97;5058835;28;20067;-68
2023/12/14 07:02:07;;;;;;;16.85;9.55;;;;;;;6.84;88.08;101493.47;5063332;28;20182;-68
2023/12/14 07:04:32;;;;;;;17.35;9.88;;;;;;;6.84;88.00;101492.63;5062545;28;20075;-68
2023/12/14 07:06:58;;;;;;;17.75;10.50;;;;;;;6.85;87.54;101494.34;5058531;28;20044;-68
2023/12/14 07:09:24;;;;;;;15.68;9.63;;;;;;;6.85;87.97;101507.50;5058361;28;20025;-68
2023/12/14 07:11:49;;;;;;;18.10;10.20;;;;;;;6.83;88.12;101504.91;5053286;28;20516;-69
2023/12/14 07:14:14;;;;;;;19.95;10.30;;;;;;;6.84;88.04;101518.91;5060366;28;20136;-68
2023/12/14 07:16:40;;;;;;;18.40;11.05;;;;;;;6.82;88.74;101525.94;5054811;28;20041;-68
2023/12/14 07:19:06;;;;;;;23.00;12.05;;;;;;;6.80;88.45;101525.09;5056208;28;20210;-69
2023/12/14 07:21:31;;;;;;;19.50;11.13;;;;;;;6.79;88.61;101534.72;5050475;28;20376;-68
2023/12/14 07:23:57;;;;;;;23.67;11.90;;;;;;;6.79;88.80;101540.00;5058593;28;20260;-69
2023/12/14 07:26:23;;;;;;;21.90;11.80;;;;;;;6.76;88.48;101550.56;5052814;28;20498;-68
2023/12/14 07:28:48;;;;;;;21.23;10.65;;;;;;;6.74;88.32;101552.31;5055296;28;20017;-68
2023/12/14 07:31:14;;;;;;;18.83;10.77;;;;;;;6.73;88.36;101560.25;5053089;28;20040;-68
2023/12/14 07:33:39;;;;;;;24.90;11.07;;;;;;;6.68;88.28;101562.91;5056405;28;20039;-68
2023/12/14 07:36:05;;;;;;;22.83;10.90;;;;;;;6.69;88.13;101571.66;5055362;28;20062;-68
2023/12/14 07:38:31;;;;;;;20.55;10.32;;;;;;;6.67;88.50;101570.81;5059948;28;20025;-68
2023/12/14 07:40:56;;;;;;;23.13;10.02;;;;;;;6.68;88.54;101581.31;5059076;28;20074;-68
2023/12/14 07:43:22;;;;;;;17.33;9.85;;;;;;;6.69;88.21;101590.06;5063479;28;20032;-68
2023/12/14 07:45:48;;;;;;;21.08;9.43;;;;;;;6.68;87.57;101583.94;5059070;28;20321;-68
2023/12/14 07:48:13;;;;;;;18.25;9.70;;;;;;;6.69;87.85;101584.81;5058431;28;20409;-68
2023/12/14 07:50:39;;;;;;;20.27;9.50;;;;;;;6.72;87.52;101590.03;5062069;28;20525;-68
2023/12/14 07:53:04;;;;;;;20.20;10.60;;;;;;;6.69;87.69;101596.19;5058606;28;20029;-68
2023/12/14 07:55:30;;;;;;;18.95;9.30;;;;;;;6.69;87.42;101597.94;5063311;28;20024;-68
2023/12/14 07:57:56;;;;;;;17.85;9.50;;;;;;;6.71;87.22;101598.78;5061540;28;20037;-68
2023/12/14 08:00:21;;;;;;;14.38;8.13;;;;;;;6.68;87.17;101604.09;5060119;28;20037;-68
2023/12/14 08:02:46;;;;;;;14.45;7.78;;;;;;;6.65;87.00;101618.13;5060361;28;20024;-68
2023/12/14 08:05:12;;;;;;;14.50;8.65;;;;;;;6.62;86.54;101619.03;5052829;28;20423;-68
2023/12/14 08:07:37;;;;;;;13.88;8.27;;;;;;;6.63;86.95;101618.16;5064082;28;20508;-69
2023/12/14 08:10:03;;;;;;;18.13;9.00;;;;;;;6.64;86.97;101619.88;5061502;28;20450;-68
2023/12/14 08:12:28;;;;;;;17.00;8.20;;;;;;;6.65;86.54;101629.50;5061119;28;20087;-69
2023/12/14 08:14:54;;;;;;;16.65;8.00;;;;;;;6.68;86.31;101630.38;5057424;28;20028;-68
2023/12/14 08:17:19;;;;;;;14.23;7.28;;;;;;;6.68;86.02;101625.13;5059248;28;20041;-68
2023/12/14 08:19:45;;;;;;;13.95;7.13;;;;;;;6.67;85.33;101628.59;5060527;28;20106;-68
2023/12/14 08:22:12;;;;;;;11.52;6.97;;;;;;;6.64;85.57;101627.78;5061074;28;20095;-68
2023/12/14 08:24:41;;;;;;;11.80;7.22;;;;;;;6.63;85.25;101639.16;5062962;28;20025;-68
2023/12/14 08:27:06;;;;;;;14.38;7.88;;;;;;;6.64;84.97;101650.53;5060942;28;20082;-68
2023/12/14 08:29:32;;;;;;;13.20;7.60;;;;;;;6.65;84.87;101657.53;5058572;28;20040;-68
2023/12/14 08:31:59;;;;;;;15.80;6.90;;;;;;;6.67;84.81;101662.75;5053793;28;20064;-68
2023/12/14 08:34:28;;;;;;;14.15;7.05;;;;;;;6.67;84.42;101665.38;5058719;28;20546;-69
2023/12/14 08:36:53;;;;;;;14.27;6.60;;;;;;;6.66;85.04;101669.78;5064107;28;20063;-68
2023/12/14 08:39:19;;;;;;;12.32;7.00;;;;;;;6.67;84.37;101670.66;5060655;28;20048;-68
2023/12/14 08:41:46;;;;;;;10.05;6.68;;;;;;;6.67;84.82;101682.06;5054439;28;20031;-68
2023/12/14 08:44:11;;;;;;;12.32;7.13;;;;;;;6.67;85.02;101681.16;5061153;28;20032;-68
2023/12/14 08:46:44;;;;;;;14.20;7.78;;;;;;;6.67;84.72;101687.31;5062979;28;20468;-68
2023/12/14 08:49:11;;;;;;;17.08;7.30;;;;;;;6.61;84.80;101696.09;5060420;28;20039;-68
2023/12/14 08:51:38;;;;;;;12.63;6.68;;;;;;;6.60;84.54;101702.25;5054320;28;20075;-68
2023/12/14 08:54:04;;;;;;;11.23;7.63;;;;;;;6.58;83.86;101708.41;5053997;28;20090;-68
2023/12/14 08:56:29;;;;;;;13.40;7.47;;;;;;;6.57;84.31;101709.28;5057851;28;20035;-69
2023/12/14 08:58:55;;;;;;;11.88;6.43;;;;;;;6.54;83.81;101711.97;5053552;28;20052;-68
2023/12/14 09:01:21;;;;;;;14.18;7.90;;;;;;;6.51;83.87;101707.59;5056515;28;20051;-68
2023/12/14 09:03:46;;;;;;;11.98;7.57;;;;;;;6.55;83.53;101705.81;5053041;28;20033;-68
2023/12/14 09:06:12;;;;;;;11.77;6.50;;;;;;;6.54;83.68;101707.56;5054483;28;20028;-69
2023/12/14 09:08:37;;;;;;;11.93;6.55;;;;;;;6.56;83.70;101708.41;5051727;28;20032;-68
2023/12/14 09:11:03;;;;;;;10.52;6.80;;;;;;;6.58;83.36;101719.81;5053541;28;20115;-68
2023/12/14 09:13:29;;;;;;;11.88;7.03;;;;;;;6.59;83.42;101725.91;5054674;28;20029;-68
2023/12/14 09:15:54;;;;;;;10.30;7.03;;;;;;;6.60;83.00;101730.28;5056026;28;20021;-68
2023/12/14 09:18:20;;;;;;;10.57;6.30;;;;;;;6.57;82.58;101735.56;5053602;28;20029;-69
2023/12/14 09:20:46;;;;;;;10.60;6.88;;;;;;;6.58;82.62;101739.94;5065805;28;20499;-68
2023/12/14 09:23:11;;;;;;;11.02;6.75;;;;;;;6.57;82.52;101756.56;5058099;28;20029;-69
2023/12/14 09:25:36;;;;;;;11.02;7.32;;;;;;;6.58;83.34;101756.56;5056400;28;20438;-68
2023/12/14 09:28:02;;;;;;;12.38;6.95;;;;;;;6.58;82.59;101763.59;5055656;28;20033;-68
2023/12/14 09:30:27;;;;;;;11.70;7.25;;;;;;;6.58;82.57;101767.09;5061794;28;20021;-68
2023/12/14 09:32:53;;;;;;;12.75;7.32;;;;;;;6.59;82.86;101767.97;5052692;28;20051;-69
2023/12/14 09:35:18;;;;;;;10.07;6.90;;;;;;;6.60;82.27;101778.44;5061264;28;20419;-69
2023/12/14 09:37:43;;;;;;;10.63;6.88;;;;;;;6.59;82.72;101784.59;5063502;28;20082;-68
2023/12/14 09:40:11;;;;;;;11.75;6.75;;;;;;;6.63;82.47;101775.78;5057159;28;20048;-67
2023/12/14 09:42:41;;;;;;;13.05;7.05;;;;;;;6.63;81.92;101783.69;5059494;28;20532;-67
2023/12/14 09:45:08;;;;;;;11.60;7.03;;;;;;;6.68;82.41;101785.41;5056202;28;20035;-67
2023/12/14 09:47:34;;;;;;;10.68;6.97;;;;;;;6.67;81.93;101795.03;5053228;28;20065;-67
2023/12/14 09:50:00;;;;;;;10.90;6.75;;;;;;;6.68;81.79;101788.03;5054394;28;20539;-67
2023/12/14 09:52:26;;;;;;;11.55;7.40;;;;;;;6.69;82.03;101802.91;5060243;28;20021;-68
2023/12/14 09:54:51;;;;;;;9.30;5.97;;;;;;;6.67;81.71;101802.03;5054519;28;20035;-67
2023/12/14 09:57:18;;;;;;;11.25;6.35;;;;;;;6.65;81.63;101816.06;5054197;28;20138;-67
2023/12/14 09:59:54;;;;;;;9.63;6.13;;;;;;;6.67;81.87;101813.44;5060739;28;20588;-67
2023/12/14 10:02:20;;;;;;;9.80;6.22;;;;;;;6.66;82.26;101824.81;5054232;28;20482;-67
2023/12/14 10:04:46;;;;;;;9.50;6.25;;;;;;;6.67;81.66;101828.31;5053079;28;20028;-68
2023/12/14 10:07:12;;;;;;;15.20;7.13;;;;;;;6.64;82.12;101834.47;5055744;28;20041;-67
2023/12/14 10:09:37;;;;;;;9.35;6.10;;;;;;;6.65;81.50;101838.84;5056373;28;20361;-68
2023/12/14 10:12:05;;;;;;;10.93;6.93;;;;;;;6.61;80.89;101842.38;5054660;28;20069;-67
2023/12/14 10:14:31;;;;;;;8.70;6.07;;;;;;;6.59;81.08;101844.16;5053514;28;20550;-67
2023/12/14 10:16:57;;;;;;;9.57;6.22;;;;;;;6.58;81.00;101855.53;5059183;28;20028;-68
2023/12/14 10:19:23;;;;;;;11.75;6.72;;;;;;;6.61;80.91;101855.50;5054237;28;20067;-66
2023/12/14 10:21:49;;;;;;;11.38;6.43;;;;;;;6.60;80.77;101854.63;5060036;28;20446;-67
2023/12/14 10:24:16;;;;;;;9.88;5.90;;;;;;;6.62;80.04;101859.88;5057992;28;20536;-67
2023/12/14 10:26:41;;;;;;;11.95;6.88;;;;;;;6.59;79.97;101852.91;5056083;28;20032;-67
2023/12/14 10:29:08;;;;;;;12.60;6.78;;;;;;;6.58;80.45;101866.06;5055861;28;20376;-68
2023/12/14 10:31:37;;;;;;;10.80;6.75;;;;;;;6.58;80.19;101864.31;5055324;28;20036;-66
2023/12/14 10:34:03;;;;;;;9.88;6.13;;;;;;;6.57;80.16;101861.66;5051126;28;20033;-68
2023/12/14 10:36:30;;;;;;;10.18;6.13;;;;;;;6.58;79.98;101864.31;5058976;28;20024;-68
2023/12/14 10:38:58;;;;;;;8.93;5.82;;;;;;;6.62;80.43;101863.41;5054928;28;20587;-68
2023/12/14 10:41:24;;;;;;;10.15;6.07;;;;;;;6.75;80.04;101873.78;5057016;28;20522;-67
2023/12/14 10:43:56;;;;;;;10.98;6.35;;;;;;;6.84;79.36;101861.44;5057736;28;20104;-68
2023/12/14 10:46:23;;;;;;;;;;;;;;;7.03;80.27;101867.41;5053349;28;20551;-68
2023/12/14 10:48:50;;;;;;;12.35;5.70;;;;;;;7.02;78.78;101870.94;5058051;28;20622;-68
2023/12/14 10:51:18;;;;;;;9.63;5.82;;;;;;;7.06;78.78;101859.50;5060889;28;20031;-68
2023/12/14 10:53:47;;;;;;;11.32;6.03;;;;;;;7.06;78.53;101872.66;5059350;28;20032;-69
2023/12/14 10:56:13;;;;;;;11.23;6.07;;;;;;;7.06;78.11;101870.03;5056371;28;20481;-69
2023/12/14 10:58:52;;;;;;;9.70;6.35;;;;;;;7.08;78.14;101875.25;5056603;28;20048;-69
2023/12/14 11:01:26;;;;;;;11.00;6.13;;;;;;;7.03;77.75;101875.31;5055710;28;20078;-69
2023/12/14 11:03:56;;;;;;;9.82;5.68;;;;;;;7.05;78.30;101883.19;5057954;28;20032;-68
2023/12/14 11:06:29;;;;;;;8.27;5.00;;;;;;;7.01;78.28;101892.88;5053720;28;20086;-68
2023/12/14 11:09:06;;;;;;;12.00;5.93;;;;;;;7.00;78.11;101893.75;5056324;28;20039;-68
2023/12/14 11:11:49;;;;;;;9.80;6.07;;;;;;;7.13;78.98;101889.25;5069167;28;20039;-69
2023/12/14 11:14:18;;;;;;;10.68;6.00;;;;;;;7.12;78.40;101883.13;5059730;28;20025;-69
2023/12/14 11:16:47;;;;;;;10.45;6.45;;;;;;;7.17;77.17;101888.31;5056445;28;20071;-69